Terminal Aerodrome Forecast
Issued by NWS

Home | Current Version | Previous Version | Text Only | Print | Product List | Glossary On
Versions: 1 2 3 4 5 6 7 8 9 10 11 12 13 14 15
000
FTUS45 KABQ 241740
TAFLVS
TAF
KLVS 241740Z 2418/2518 17011KT P6SM SCT025
      TEMPO 2418/2420 BKN025
     FM242000 17011G21KT P6SM BKN040
     FM242300 16011KT P6SM BKN050
     FM250100 15011KT P6SM VCSH BKN025=

USA.gov is the U.S. government's official web portal to all federal, state and local government web resources and services.